Delta, Canada
Current Conditions -  °F | °C
As of 8:31 PM on Saturday 25 Oct 2014 (Local Time) from CYVR Reporting Station
Light Rain Light Rain  
Wind Chill: 50°   Ceiling: 1300
Heat Index: 50°   Visibility: 8mi
Dew Point: 48°   Wind: 26mph
Humidity: 94%   Direction: 290°WNW
Pressure: 29.32"   Gusts: NA
Location:  49.09°N, 123.06°W
Report Text: CYVR 260331Z 29023KT 8SM -RA SCT006 BKN013 OVC031 10/09 A2932 RMK SF3SC3NS2 VIS N 6 PRESRR SLP928
Loading
Personal Weather Stations






























Interactive Weather Map
Tropical Storm Tracking
New forecast layout! Learn more

10-Day Weather Forecast

Advertisements
Track Severe Weather on mobile